Time;durP1;ratioP1;P1;durP2;ratioP2;P2;SDS_P1;SDS_P2;PMS_P1;PMS_P2;Temp;Humidity;BMP_temperature;BMP_pressure;BME280_temperature;BME280_humidity;BME280_pressure;Samples;Min_cycle;Max_cycle;Signal;HPM_P1;HPM_P2
2020/12/17 00:01:59;;;;;;;3.70;2.80;;;;;15.10;101093.00;;;;5087966;28;20202;-75
2020/12/17 00:04:27;;;;;;;5.05;3.47;;;;;15.20;101088.00;;;;5096503;28;20193;-76
2020/12/17 00:06:55;;;;;;;4.07;3.55;;;;;15.20;101100.00;;;;5108329;28;20197;-76
2020/12/17 00:09:22;;;;;;;5.10;3.50;;;;;15.20;101102.00;;;;5102795;28;20660;-76
2020/12/17 00:11:49;;;;;;;3.50;2.83;;;;;15.20;101087.00;;;;5072787;28;20592;-75
2020/12/17 00:14:17;;;;;;;3.63;2.72;;;;;15.20;101086.00;;;;5084092;28;20259;-76
2020/12/17 00:16:43;;;;;;;3.92;3.33;;;;;15.20;101083.00;;;;5088599;28;20194;-76
2020/12/17 00:19:11;;;;;;;4.10;3.38;;;;;15.20;101084.00;;;;5091691;28;20571;-76
2020/12/17 00:21:37;;;;;;;4.57;3.45;;;;;15.20;101086.00;;;;5087563;28;20209;-75
2020/12/17 00:24:05;;;;;;;3.67;2.90;;;;;15.20;101086.00;;;;5095397;28;20576;-76
2020/12/17 00:26:32;;;;;;;3.75;2.88;;;;;15.20;101096.00;;;;5107328;28;20190;-75
2020/12/17 00:28:58;;;;;;;3.35;3.03;;;;;15.20;101083.00;;;;5101589;28;20202;-76
2020/12/17 00:31:25;;;;;;;4.05;3.20;;;;;15.20;101096.00;;;;5107519;28;20228;-76
2020/12/17 00:33:52;;;;;;;3.85;3.08;;;;;15.20;101090.00;;;;5102007;28;20206;-75
2020/12/17 00:36:19;;;;;;;3.90;2.97;;;;;15.20;101080.00;;;;5087629;28;20198;-75
2020/12/17 00:38:46;;;;;;;3.10;2.50;;;;;15.20;101083.00;;;;5094786;28;20194;-75
2020/12/17 00:41:14;;;;;;;4.35;3.75;;;;;15.20;101093.00;;;;5094653;28;20206;-75
2020/12/17 00:43:42;;;;;;;5.35;2.95;;;;;15.20;101092.00;;;;5096837;28;20190;-75
2020/12/17 00:46:11;;;;;;;3.08;2.67;;;;;15.20;101086.00;;;;5089087;28;20209;-76
2020/12/17 00:48:38;;;;;;;4.00;3.10;;;;;15.20;101090.00;;;;5091724;28;20587;-76
2020/12/17 00:51:05;;;;;;;3.13;2.58;;;;;15.20;101087.00;;;;5103226;28;20583;-75
2020/12/17 00:53:32;;;;;;;4.13;3.28;;;;;15.20;101079.00;;;;5087042;28;20563;-76
2020/12/17 00:55:58;;;;;;;3.92;3.00;;;;;15.20;101085.00;;;;5105058;28;20666;-75
2020/12/17 00:58:26;;;;;;;5.05;3.33;;;;;15.20;101086.00;;;;5098732;28;20225;-75
2020/12/17 01:00:53;;;;;;;3.92;3.25;;;;;15.10;101084.00;;;;5090136;28;20210;-75
2020/12/17 01:03:20;;;;;;;3.45;2.95;;;;;15.10;101090.00;;;;5102918;28;20200;-76
2020/12/17 01:05:46;;;;;;;3.92;3.22;;;;;15.10;101082.00;;;;5107612;28;20198;-76
2020/12/17 01:08:13;;;;;;;4.72;2.95;;;;;15.10;101083.00;;;;5089337;28;20194;-75
2020/12/17 01:10:40;;;;;;;3.80;3.38;;;;;15.10;101088.00;;;;5104441;28;20217;-75
2020/12/17 01:13:06;;;;;;;4.32;3.53;;;;;15.10;101086.00;;;;5091084;28;20194;-76
2020/12/17 01:15:34;;;;;;;3.55;2.95;;;;;15.10;101078.00;;;;5096768;28;20190;-76
2020/12/17 01:18:01;;;;;;;7.82;3.33;;;;;15.10;101082.00;;;;5090152;28;20240;-75
2020/12/17 01:20:27;;;;;;;5.22;3.38;;;;;15.10;101092.00;;;;5101804;28;20194;-76
2020/12/17 01:22:54;;;;;;;3.83;3.28;;;;;15.10;101078.00;;;;5096363;28;20608;-75
2020/12/17 01:25:22;;;;;;;3.92;3.40;;;;;15.10;101084.00;;;;5087582;28;20190;-75
2020/12/17 01:27:48;;;;;;;6.35;3.40;;;;;15.10;101075.00;;;;5091215;28;20194;-75
2020/12/17 01:30:15;;;;;;;4.18;3.63;;;;;15.10;101081.00;;;;5100045;28;20236;-75
2020/12/17 01:32:43;;;;;;;4.75;3.45;;;;;15.10;101081.00;;;;5090262;28;20186;-76
2020/12/17 01:35:09;;;;;;;4.28;3.45;;;;;15.10;101071.00;;;;5098194;28;20201;-75
2020/12/17 01:37:36;;;;;;;3.58;2.85;;;;;15.10;101069.00;;;;5092310;28;20200;-76
2020/12/17 01:40:03;;;;;;;3.65;2.90;;;;;15.10;101072.00;;;;5090560;28;20421;-76
2020/12/17 01:42:30;;;;;;;4.03;2.72;;;;;15.10;101074.00;;;;5096513;28;20212;-76
2020/12/17 01:44:57;;;;;;;5.07;2.88;;;;;15.10;101077.00;;;;5103340;28;20186;-75
2020/12/17 01:47:35;;;;;;;3.40;2.80;;;;;15.10;101075.00;;;;5110479;28;20913;-75
2020/12/17 01:50:05;;;;;;;4.20;3.25;;;;;15.10;101077.00;;;;5099865;28;20186;-76
2020/12/17 01:52:31;;;;;;;3.28;2.67;;;;;15.10;101080.00;;;;5094817;28;20240;-75
2020/12/17 01:54:59;;;;;;;3.83;3.00;;;;;15.10;101077.00;;;;5102792;28;20255;-75
2020/12/17 01:57:31;;;;;;;4.43;3.30;;;;;15.10;101082.00;;;;5101763;28;20198;-75
2020/12/17 02:00:04;;;;;;;3.78;3.15;;;;;15.10;101081.00;;;;5088985;28;20249;-75
2020/12/17 02:02:32;;;;;;;3.55;2.88;;;;;15.10;101082.00;;;;5092618;28;20198;-75
2020/12/17 02:05:01;;;;;;;3.15;2.70;;;;;15.10;101081.00;;;;5108387;28;20189;-76
2020/12/17 02:07:29;;;;;;;4.32;2.60;;;;;15.10;101077.00;;;;5104277;27;20187;-76
2020/12/17 02:09:56;;;;;;;2.83;2.45;;;;;15.20;101072.00;;;;5090483;28;20289;-76
2020/12/17 02:12:23;;;;;;;3.05;2.72;;;;;15.10;101076.00;;;;5102690;28;20217;-76
2020/12/17 02:14:50;;;;;;;3.33;2.67;;;;;15.20;101070.00;;;;5094038;28;20346;-75
2020/12/17 02:17:16;;;;;;;3.30;2.80;;;;;15.20;101076.00;;;;5099468;28;20202;-76
2020/12/17 02:19:43;;;;;;;3.13;2.63;;;;;15.20;101071.00;;;;5104409;28;20186;-75
2020/12/17 02:22:11;;;;;;;3.50;2.85;;;;;15.20;101074.00;;;;5089551;28;20205;-76
2020/12/17 02:24:39;;;;;;;3.63;3.05;;;;;15.20;101076.00;;;;5093862;28;20186;-76
2020/12/17 02:27:06;;;;;;;3.22;2.83;;;;;15.20;101072.00;;;;5096411;28;20201;-75
2020/12/17 02:29:32;;;;;;;3.33;2.92;;;;;15.20;101068.00;;;;5091919;28;20741;-75
2020/12/17 02:31:59;;;;;;;3.67;2.78;;;;;15.20;101076.00;;;;5108628;28;20225;-76
2020/12/17 02:34:26;;;;;;;4.15;3.17;;;;;15.20;101066.00;;;;5095013;28;20970;-76
2020/12/17 02:36:52;;;;;;;3.55;2.70;;;;;15.20;101065.00;;;;5089612;28;20190;-75
2020/12/17 02:39:19;;;;;;;2.45;2.13;;;;;15.20;101069.00;;;;5092108;28;21015;-76
2020/12/17 02:41:47;;;;;;;4.15;2.63;;;;;15.20;101064.00;;;;5087875;28;20194;-75
2020/12/17 02:44:14;;;;;;;3.03;2.22;;;;;15.20;101065.00;;;;5089762;28;20194;-76
2020/12/17 02:46:40;;;;;;;3.63;2.65;;;;;15.20;101066.00;;;;5106113;28;20201;-75
2020/12/17 02:49:07;;;;;;;3.60;2.75;;;;;15.20;101069.00;;;;5089056;28;20617;-75
2020/12/17 02:51:34;;;;;;;2.50;2.25;;;;;15.20;101062.00;;;;5097854;28;20230;-76
2020/12/17 02:54:00;;;;;;;3.00;2.58;;;;;15.20;101069.00;;;;5088389;28;20244;-75
2020/12/17 02:56:27;;;;;;;2.70;2.17;;;;;15.20;101056.00;;;;5097213;28;20185;-76
2020/12/17 02:58:55;;;;;;;4.35;2.08;;;;;15.20;101060.00;;;;5098669;28;20221;-76
2020/12/17 03:01:21;;;;;;;3.33;2.40;;;;;15.20;101062.00;;;;5073739;28;20197;-75
2020/12/17 03:03:48;;;;;;;2.38;2.17;;;;;15.20;101071.00;;;;5109061;28;20570;-76
2020/12/17 03:06:15;;;;;;;2.38;2.17;;;;;15.20;101064.00;;;;5089556;28;20201;-76
2020/12/17 03:08:42;;;;;;;3.63;2.58;;;;;15.20;101065.00;;;;5087620;28;20202;-75
2020/12/17 03:11:09;;;;;;;3.65;2.67;;;;;15.20;101062.00;;;;5090208;28;20212;-76
2020/12/17 03:13:35;;;;;;;3.70;2.40;;;;;15.30;101073.00;;;;5105879;28;20197;-76
2020/12/17 03:16:03;;;;;;;5.03;2.47;;;;;15.20;101065.00;;;;5103462;28;20251;-76
2020/12/17 03:18:30;;;;;;;2.45;2.25;;;;;15.30;101064.00;;;;5105363;28;20272;-76
2020/12/17 03:20:56;;;;;;;3.30;2.50;;;;;15.30;101068.00;;;;5106864;28;20207;-75
2020/12/17 03:23:23;;;;;;;2.70;1.90;;;;;15.30;101067.00;;;;5107619;28;20193;-76
2020/12/17 03:25:50;;;;;;;3.15;2.65;;;;;15.30;101066.00;;;;5103610;28;20201;-76
2020/12/17 03:28:17;;;;;;;2.45;2.15;;;;;15.30;101064.00;;;;5100231;28;20217;-76
2020/12/17 03:30:43;;;;;;;2.72;2.33;;;;;15.30;101067.00;;;;5099990;28;20202;-76
2020/12/17 03:33:11;;;;;;;3.53;2.65;;;;;15.30;101071.00;;;;5094061;28;20691;-76
2020/12/17 03:35:38;;;;;;;2.55;2.35;;;;;15.30;101073.00;;;;5087928;28;20198;-76
2020/12/17 03:38:04;;;;;;;2.65;2.22;;;;;15.30;101060.00;;;;5090802;28;20211;-76
2020/12/17 03:40:31;;;;;;;2.88;2.22;;;;;15.30;101064.00;;;;5089884;28;20201;-76
2020/12/17 03:42:58;;;;;;;3.97;2.47;;;;;15.30;101059.00;;;;5100773;28;20189;-76
2020/12/17 03:45:25;;;;;;;3.10;2.20;;;;;15.30;101063.00;;;;5090799;28;20248;-76
2020/12/17 03:47:51;;;;;;;2.80;2.33;;;;;15.30;101060.00;;;;5090371;28;20208;-76
2020/12/17 03:50:19;;;;;;;2.88;2.05;;;;;15.30;101062.00;;;;5097009;28;20752;-76
2020/12/17 03:52:46;;;;;;;3.45;2.20;;;;;15.30;101062.00;;;;5101792;28;20217;-76
2020/12/17 03:55:12;;;;;;;3.20;2.33;;;;;15.40;101068.00;;;;5090231;28;20194;-76
2020/12/17 03:57:39;;;;;;;5.82;2.15;;;;;15.40;101073.00;;;;5097742;28;20250;-76
2020/12/17 04:00:06;;;;;;;2.88;2.20;;;;;15.40;101064.00;;;;5093502;28;20209;-76
2020/12/17 04:02:33;;;;;;;2.80;1.63;;;;;15.40;101060.00;;;;5096813;28;20205;-77
2020/12/17 04:05:00;;;;;;;4.90;2.40;;;;;15.40;101067.00;;;;5108350;28;20194;-77
2020/12/17 04:07:28;;;;;;;2.60;2.03;;;;;15.40;101069.00;;;;5100122;28;20205;-77
2020/12/17 04:09:55;;;;;;;2.45;2.25;;;;;15.40;101070.00;;;;5088700;28;20194;-77
2020/12/17 04:12:21;;;;;;;2.05;1.73;;;;;15.40;101061.00;;;;5092309;28;20218;-77
2020/12/17 04:14:48;;;;;;;2.13;1.77;;;;;15.40;101071.00;;;;5088753;28;20197;-77
2020/12/17 04:17:15;;;;;;;2.58;2.15;;;;;15.40;101062.00;;;;5099812;28;20197;-77
2020/12/17 04:19:42;;;;;;;2.75;2.17;;;;;15.40;101073.00;;;;5103963;28;20199;-77
2020/12/17 04:22:16;;;;;;;2.60;1.95;;;;;15.40;101070.00;;;;5087173;28;20201;-77
2020/12/17 04:24:44;;;;;;;2.78;2.13;;;;;15.40;101073.00;;;;5097323;28;20251;-77
2020/12/17 04:27:11;;;;;;;3.83;1.92;;;;;15.40;101085.00;;;;5104828;28;20198;-77
2020/12/17 04:29:39;;;;;;;2.25;1.92;;;;;15.40;101074.00;;;;5088731;28;20289;-78
2020/12/17 04:32:06;;;;;;;3.17;2.15;;;;;15.40;101088.00;;;;5072069;28;20226;-78
2020/12/17 04:34:33;;;;;;;1.98;1.77;;;;;15.40;101090.00;;;;5099497;28;20193;-78
2020/12/17 04:36:59;;;;;;;3.08;2.40;;;;;15.40;101083.00;;;;5112000;28;20227;-78
2020/12/17 04:39:26;;;;;;;3.22;2.40;;;;;15.40;101087.00;;;;5108314;28;20712;-78
2020/12/17 04:41:54;;;;;;;3.30;2.50;;;;;15.40;101095.00;;;;5091667;28;20190;-78
2020/12/17 04:44:21;;;;;;;2.08;1.85;;;;;15.40;101093.00;;;;5092780;28;20198;-78
2020/12/17 04:46:57;;;;;;;3.58;2.10;;;;;15.30;101096.00;;;;5091659;28;20202;-78
2020/12/17 04:49:26;;;;;;;2.33;1.98;;;;;15.30;101100.00;;;;5097627;28;20202;-78
2020/12/17 04:51:56;;;;;;;3.13;2.28;;;;;15.30;101101.00;;;;5091170;28;20221;-78
2020/12/17 04:54:24;;;;;;;3.20;2.35;;;;;15.30;101102.00;;;;5085663;28;20229;-78
2020/12/17 04:57:05;;;;;;;2.58;2.08;;;;;15.20;101110.00;;;;5109677;28;20204;-78
2020/12/17 04:59:40;;;;;;;2.25;1.95;;;;;15.20;101101.00;;;;5083803;28;20226;-78
2020/12/17 05:02:08;;;;;;;2.90;2.35;;;;;15.30;101107.00;;;;5090955;28;20206;-79
2020/12/17 05:04:39;;;;;;;2.42;2.08;;;;;15.30;101108.00;;;;5095138;28;20202;-78
2020/12/17 05:07:08;;;;;;;3.55;2.60;;;;;15.30;101112.00;;;;5084062;28;20201;-78
2020/12/17 05:09:35;;;;;;;2.97;2.50;;;;;15.30;101113.00;;;;5093165;28;20453;-78
2020/12/17 05:12:03;;;;;;;3.05;2.70;;;;;15.30;101113.00;;;;5101778;28;20222;-78
2020/12/17 05:14:30;;;;;;;3.42;2.85;;;;;15.30;101118.00;;;;5090773;28;20195;-78
2020/12/17 05:16:57;;;;;;;3.00;2.45;;;;;15.30;101120.00;;;;5111046;28;20194;-78
2020/12/17 05:19:24;;;;;;;2.63;2.17;;;;;15.30;101120.00;;;;5095881;28;20659;-78
2020/12/17 05:21:52;;;;;;;2.85;2.63;;;;;15.30;101119.00;;;;5110593;28;20201;-78
2020/12/17 05:24:21;;;;;;;2.83;2.53;;;;;15.30;101119.00;;;;5095803;28;20575;-78
2020/12/17 05:26:48;;;;;;;3.65;2.47;;;;;15.30;101120.00;;;;5105987;28;20407;-78
2020/12/17 05:29:16;;;;;;;2.95;2.65;;;;;15.30;101123.00;;;;5090378;28;20193;-78
2020/12/17 05:31:44;;;;;;;2.95;2.55;;;;;15.30;101133.00;;;;5111243;28;20282;-78
2020/12/17 05:34:11;;;;;;;3.75;2.53;;;;;15.30;101145.00;;;;5108308;28;20202;-78
2020/12/17 05:36:39;;;;;;;3.65;2.90;;;;;15.30;101151.00;;;;5092045;28;20197;-78
2020/12/17 05:39:11;;;;;;;3.25;2.88;;;;;15.30;101153.00;;;;5090545;28;20243;-78
2020/12/17 05:41:38;;;;;;;3.33;2.92;;;;;15.30;101158.00;;;;5094854;28;20225;-78
2020/12/17 05:44:12;;;;;;;3.65;2.83;;;;;15.30;101163.00;;;;5091434;28;20815;-78
2020/12/17 05:46:41;;;;;;;3.20;2.90;;;;;15.30;101171.00;;;;5089434;28;20190;-78
2020/12/17 05:49:20;;;;;;;3.65;3.00;;;;;15.30;101173.00;;;;5097608;28;20194;-78
2020/12/17 05:51:48;;;;;;;5.25;3.53;;;;;15.30;101183.00;;;;5071703;28;20226;-78
2020/12/17 05:54:23;;;;;;;4.30;3.03;;;;;15.20;101185.00;;;;5091643;28;20205;-78
2020/12/17 05:57:04;;;;;;;4.30;3.38;;;;;15.30;101194.00;;;;5094190;28;20311;-78
2020/12/17 05:59:30;;;;;;;3.78;3.20;;;;;15.30;101195.00;;;;5075401;28;20226;-78
2020/12/17 06:01:58;;;;;;;4.45;3.60;;;;;15.20;101194.00;;;;5090408;28;20774;-78
2020/12/17 06:04:25;;;;;;;4.75;3.75;;;;;15.30;101201.00;;;;5079448;28;20675;-78
2020/12/17 06:07:04;;;;;;;4.05;3.65;;;;;15.20;101207.00;;;;5080149;28;20194;-78
2020/12/17 06:09:36;;;;;;;6.13;3.75;;;;;15.20;101210.00;;;;5078183;28;20289;-78
2020/12/17 06:12:03;;;;;;;5.32;4.25;;;;;15.20;101203.00;;;;5084245;28;20237;-78
2020/12/17 06:14:33;;;;;;;5.45;4.10;;;;;15.20;101213.00;;;;5087117;28;20205;-78
2020/12/17 06:17:08;;;;;;;4.50;3.72;;;;;15.10;101222.00;;;;5107101;28;20193;-77
2020/12/17 06:19:37;;;;;;;4.97;4.40;;;;;15.20;101212.00;;;;5089963;28;20196;-78
2020/12/17 06:22:10;;;;;;;4.65;4.10;;;;;15.10;101212.00;;;;5095000;28;20199;-78
2020/12/17 06:24:38;;;;;;;4.45;3.92;;;;;15.20;101223.00;;;;5083351;28;20286;-78
2020/12/17 06:27:09;;;;;;;5.20;4.20;;;;;15.20;101225.00;;;;5087552;28;20202;-78
2020/12/17 06:29:47;;;;;;;5.28;4.38;;;;;15.20;101227.00;;;;5090153;28;20600;-78
2020/12/17 06:32:17;;;;;;;4.82;4.30;;;;;15.10;101228.00;;;;5087364;28;20218;-78
2020/12/17 06:34:49;;;;;;;5.75;5.07;;;;;15.10;101236.00;;;;5098057;28;20205;-78
2020/12/17 06:37:17;;;;;;;5.72;4.32;;;;;15.10;101250.00;;;;5088250;28;20209;-78
2020/12/17 06:39:48;;;;;;;6.30;4.82;;;;;15.10;101248.00;;;;5092938;28;20275;-78
2020/12/17 06:42:36;;;;;;;6.63;4.93;;;;;15.00;101255.00;;;;5095827;28;20675;-78
2020/12/17 06:45:04;;;;;;;5.00;4.22;;;;;15.10;101258.00;;;;5083599;28;20206;-78
2020/12/17 06:47:32;;;;;;;6.30;5.13;;;;;15.00;101262.00;;;;5089152;28;20202;-78
2020/12/17 06:50:21;;;;;;;5.53;4.43;;;;;14.90;101269.00;;;;5101634;28;20195;-78
2020/12/17 06:53:08;;;;;;;5.47;4.88;;;;;14.90;101267.00;;;;5093385;27;20658;-77
2020/12/17 06:55:46;;;;;;;5.85;4.07;;;;;14.90;101274.00;;;;5084914;28;20205;-78
2020/12/17 06:58:23;;;;;;;5.32;4.63;;;;;14.90;101281.00;;;;5092996;28;20705;-77
2020/12/17 07:00:52;;;;;;;5.60;4.22;;;;;15.00;101277.00;;;;5088250;28;20213;-77
2020/12/17 07:03:47;;;;;;;4.60;4.13;;;;;14.90;101286.00;;;;5084770;28;20225;-78
2020/12/17 07:06:18;;;;;;;5.03;4.13;;;;;14.90;101293.00;;;;5056345;28;20792;-78
2020/12/17 07:08:47;;;;;;;6.22;5.22;;;;;15.00;101289.00;;;;5097357;28;20198;-78
2020/12/17 07:11:36;;;;;;;6.10;5.00;;;;;14.80;101295.00;;;;5096622;28;20218;-78
2020/12/17 07:14:04;;;;;;;5.70;4.47;;;;;14.90;101294.00;;;;5088169;28;20543;-78
2020/12/17 07:16:32;;;;;;;5.13;4.45;;;;;15.00;101299.00;;;;5088304;28;20288;-78
2020/12/17 07:19:25;;;;;;;5.55;4.32;;;;;14.80;101289.00;;;;5091559;28;20683;-78
2020/12/17 07:21:53;;;;;;;6.22;4.72;;;;;15.00;101295.00;;;;5072298;27;20816;-78
2020/12/17 07:24:25;;;;;;;5.70;4.55;;;;;14.90;101318.00;;;;5083993;28;20199;-78
2020/12/17 07:26:53;;;;;;;4.80;4.15;;;;;15.00;101321.00;;;;5105832;28;20205;-78
2020/12/17 07:29:32;;;;;;;5.95;5.10;;;;;14.90;101326.00;;;;5107085;28;20194;-78
2020/12/17 07:32:24;;;;;;;5.63;4.45;;;;;14.90;101333.00;;;;5108808;28;20282;-80
2020/12/17 07:34:52;;;;;;;5.28;4.03;;;;;15.00;101334.00;;;;5084382;28;20202;-78
2020/12/17 07:37:40;;;;;;;6.05;4.95;;;;;14.90;101334.00;;;;5089158;28;20267;-78
2020/12/17 07:40:18;;;;;;;5.32;4.70;;;;;14.90;101344.00;;;;5082290;28;20616;-78
2020/12/17 07:42:59;;;;;;;6.35;4.85;;;;;14.90;101340.00;;;;5086361;28;20201;-78
2020/12/17 07:45:50;;;;;;;6.25;4.95;;;;;14.90;101338.00;;;;5089421;28;20187;-79
2020/12/17 07:48:40;;;;;;;5.95;4.45;;;;;14.80;101336.00;;;;5088018;28;20233;-78
2020/12/17 07:51:29;;;;;;;6.93;4.43;;;;;14.80;101342.00;;;;5088546;28;20561;-79
2020/12/17 07:53:56;;;;;;;6.00;4.82;;;;;14.90;101343.00;;;;5093685;28;20612;-78
2020/12/17 07:56:23;;;;;;;5.60;4.35;;;;;14.90;101360.00;;;;5090462;28;20190;-78
2020/12/17 07:58:52;;;;;;;5.75;4.90;;;;;14.90;101367.00;;;;5091011;28;20229;-78
2020/12/17 08:01:19;;;;;;;5.55;4.80;;;;;15.00;101361.00;;;;5089221;28;20675;-78
2020/12/17 08:03:47;;;;;;;6.88;4.88;;;;;14.90;101361.00;;;;5089071;28;20206;-79
2020/12/17 08:06:17;;;;;;;6.70;5.03;;;;;15.00;101357.00;;;;5082464;28;20198;-78
2020/12/17 08:08:44;;;;;;;8.70;5.32;;;;;15.00;101349.00;;;;5088270;28;20206;-79
2020/12/17 08:11:11;;;;;;;7.13;5.60;;;;;15.00;101365.00;;;;5089830;28;20193;-80
2020/12/17 08:13:39;;;;;;;7.95;5.65;;;;;15.00;101365.00;;;;5090583;28;20205;-80
2020/12/17 08:16:06;;;;;;;7.60;5.72;;;;;15.00;101377.00;;;;5097001;28;20212;-80
2020/12/17 08:18:35;;;;;;;7.13;6.13;;;;;15.00;101380.00;;;;5083227;28;20231;-80
2020/12/17 08:21:03;;;;;;;6.97;5.60;;;;;15.00;101369.00;;;;5106746;28;20202;-79
2020/12/17 08:23:32;;;;;;;8.48;6.18;;;;;15.00;101376.00;;;;5101160;28;20198;-79
2020/12/17 08:26:01;;;;;;;7.80;5.85;;;;;15.00;101373.00;;;;5106279;28;20193;-80
2020/12/17 08:28:32;;;;;;;5.65;5.05;;;;;15.00;101376.00;;;;5094336;28;20201;-79
2020/12/17 08:31:07;;;;;;;5.95;4.93;;;;;15.00;101375.00;;;;5097869;28;20681;-79
2020/12/17 08:33:35;;;;;;;7.60;6.35;;;;;15.00;101370.00;;;;5101563;28;20258;-80
2020/12/17 08:36:07;;;;;;;5.97;5.07;;;;;15.00;101380.00;;;;5093153;28;20202;-79
2020/12/17 08:38:35;;;;;;;7.07;5.63;;;;;15.10;101377.00;;;;5090627;28;20675;-79
2020/12/17 08:41:04;;;;;;;5.10;4.38;;;;;15.10;101388.00;;;;5101964;28;20220;-79
2020/12/17 08:43:39;;;;;;;6.20;5.00;;;;;15.10;101388.00;;;;5079359;28;20205;-78
2020/12/17 08:46:12;;;;;;;7.70;5.47;;;;;15.10;101390.00;;;;5082525;28;20252;-79
2020/12/17 08:48:39;;;;;;;6.93;5.70;;;;;15.10;101387.00;;;;5095637;28;20203;-79
2020/12/17 08:51:07;;;;;;;5.47;4.75;;;;;15.20;101395.00;;;;5103228;28;20205;-79
2020/12/17 08:53:39;;;;;;;4.70;4.13;;;;;15.20;101405.00;;;;5084589;28;20247;-78
2020/12/17 08:56:11;;;;;;;5.43;4.38;;;;;15.20;101413.00;;;;5093108;28;21813;-78
2020/12/17 08:58:47;;;;;;;6.25;4.68;;;;;15.20;101412.00;;;;5101681;28;20639;-79
2020/12/17 09:01:16;;;;;;;6.22;4.88;;;;;15.20;101418.00;;;;5093938;28;20261;-79
2020/12/17 09:03:45;;;;;;;5.25;4.65;;;;;15.20;101419.00;;;;5089964;28;20209;-79
2020/12/17 09:06:12;;;;;;;4.65;4.18;;;;;15.30;101417.00;;;;5105151;28;20237;-79
2020/12/17 09:08:40;;;;;;;4.97;4.35;;;;;15.30;101424.00;;;;5092039;28;20715;-79
2020/12/17 09:11:22;;;;;;;6.18;3.85;;;;;15.30;101424.00;;;;5094220;28;20208;-79
2020/12/17 09:13:59;;;;;;;7.53;4.40;;;;;15.20;101423.00;;;;5090991;28;20206;-78
2020/12/17 09:16:28;;;;;;;5.18;3.85;;;;;15.30;101435.00;;;;5083410;28;20204;-78
2020/12/17 09:18:56;;;;;;;4.43;3.72;;;;;15.30;101435.00;;;;5087803;28;20190;-79
2020/12/17 09:21:23;;;;;;;6.50;4.60;;;;;15.40;101442.00;;;;5088464;28;20217;-78
2020/12/17 09:23:58;;;;;;;4.20;3.80;;;;;15.30;101442.00;;;;5089308;28;20332;-78
2020/12/17 09:26:25;;;;;;;3.58;3.28;;;;;15.40;101454.00;;;;5089520;28;20585;-78
2020/12/17 09:28:54;;;;;;;5.38;3.83;;;;;15.40;101448.00;;;;5077200;28;20205;-78
2020/12/17 09:31:23;;;;;;;5.00;3.38;;;;;15.40;101446.00;;;;5086826;28;20280;-79
2020/12/17 09:33:50;;;;;;;3.80;3.40;;;;;15.40;101460.00;;;;5084443;28;20245;-78
2020/12/17 09:36:18;;;;;;;7.18;3.90;;;;;15.40;101466.00;;;;5090107;28;20210;-79
2020/12/17 09:38:45;;;;;;;4.82;3.20;;;;;15.40;101465.00;;;;5090024;28;20632;-80
2020/12/17 09:41:56;;;;;;;4.07;3.50;;;;;15.40;101471.00;;;;5089212;28;21089;-78
2020/12/17 09:44:58;;;;;;;3.95;3.15;;;;;15.30;101477.00;;;;5080595;28;20298;-78
2020/12/17 09:47:33;;;;;;;5.07;3.40;;;;;15.40;101486.00;;;;5083830;28;20229;-80
2020/12/17 09:50:11;;;;;;;4.35;3.22;;;;;15.40;101484.00;;;;5089989;28;20194;-80
2020/12/17 09:52:38;;;;;;;4.55;3.00;;;;;15.40;101488.00;;;;5088416;28;20233;-79
2020/12/17 09:55:06;;;;;;;6.40;3.03;;;;;15.50;101481.00;;;;5088523;28;20678;-79
2020/12/17 09:57:41;;;;;;;4.10;3.25;;;;;15.50;101490.00;;;;5097544;28;20659;-80
2020/12/17 10:00:10;;;;;;;3.45;2.97;;;;;15.50;101494.00;;;;5090641;28;20334;-79
2020/12/17 10:02:38;;;;;;;3.88;3.35;;;;;15.50;101478.00;;;;5089473;28;20201;-79
2020/12/17 10:05:06;;;;;;;6.40;3.40;;;;;15.60;101490.00;;;;5100122;28;20194;-79
2020/12/17 10:07:33;;;;;;;3.20;2.90;;;;;15.60;101499.00;;;;5090939;28;20206;-79
2020/12/17 10:10:00;;;;;;;4.35;2.95;;;;;15.70;101499.00;;;;5088439;28;20256;-79
2020/12/17 10:12:26;;;;;;;3.58;2.90;;;;;15.70;101512.00;;;;5087730;28;20218;-80
2020/12/17 10:14:54;;;;;;;4.38;3.10;;;;;15.70;101513.00;;;;5088582;28;20194;-80
2020/12/17 10:17:21;;;;;;;4.60;3.30;;;;;15.70;101516.00;;;;5088735;28;20195;-79
2020/12/17 10:19:49;;;;;;;4.65;3.40;;;;;15.70;101515.00;;;;5088100;28;20198;-78
2020/12/17 10:22:15;;;;;;;4.65;3.33;;;;;15.70;101515.00;;;;5089248;28;20203;-79
2020/12/17 10:24:42;;;;;;;3.30;3.00;;;;;15.80;101517.00;;;;5087566;28;20578;-78
2020/12/17 10:27:09;;;;;;;4.35;2.67;;;;;15.80;101519.00;;;;5087959;28;20202;-78
2020/12/17 10:29:36;;;;;;;3.45;2.40;;;;;15.80;101523.00;;;;5086157;28;20573;-78
2020/12/17 10:32:03;;;;;;;3.38;2.40;;;;;15.80;101525.00;;;;5083970;28;20257;-78
2020/12/17 10:34:30;;;;;;;5.28;3.03;;;;;15.80;101523.00;;;;5087268;28;20699;-78
2020/12/17 10:36:57;;;;;;;2.83;2.15;;;;;15.80;101521.00;;;;5087340;28;20209;-78
2020/12/17 10:39:23;;;;;;;3.65;2.58;;;;;15.80;101530.00;;;;5086862;28;20587;-78
2020/12/17 10:41:50;;;;;;;2.92;2.50;;;;;15.80;101538.00;;;;5088659;28;20206;-78
2020/12/17 10:44:17;;;;;;;5.72;2.80;;;;;15.90;101530.00;;;;5088258;28;20256;-78
2020/12/17 10:46:43;;;;;;;3.90;2.33;;;;;15.90;101533.00;;;;5088234;28;20667;-77
2020/12/17 10:49:11;;;;;;;3.85;2.38;;;;;15.90;101534.00;;;;5088734;28;20206;-76
2020/12/17 10:51:38;;;;;;;2.50;2.20;;;;;15.90;101541.00;;;;5088970;28;20221;-76
2020/12/17 10:54:04;;;;;;;4.45;2.42;;;;;15.90;101545.00;;;;5097242;28;20193;-76
2020/12/17 10:56:31;;;;;;;5.85;2.28;;;;;16.00;101544.00;;;;5080204;28;20246;-75
2020/12/17 10:58:58;;;;;;;3.50;1.95;;;;;16.00;101548.00;;;;5088704;28;20230;-76
2020/12/17 11:01:25;;;;;;;5.70;2.47;;;;;16.00;101549.00;;;;5097138;28;20202;-76
2020/12/17 11:03:52;;;;;;;4.38;2.55;;;;;16.00;101546.00;;;;5088418;28;20217;-75
2020/12/17 11:06:22;;;;;;;3.83;2.35;;;;;16.00;101546.00;;;;5089517;28;20194;-76
2020/12/17 11:08:50;;;;;;;3.83;2.20;;;;;16.00;101553.00;;;;5088360;28;20202;-75
2020/12/17 11:11:17;;;;;;;5.22;2.03;;;;;16.00;101553.00;;;;5094294;28;20659;-76
2020/12/17 11:13:44;;;;;;;2.92;1.95;;;;;16.10;101553.00;;;;5087850;28;20206;-76
2020/12/17 11:16:11;;;;;;;4.00;2.15;;;;;16.10;101552.00;;;;5090146;28;21742;-76
2020/12/17 11:18:39;;;;;;;2.80;2.03;;;;;16.10;101567.00;;;;5089645;28;20552;-75
2020/12/17 11:21:06;;;;;;;2.70;1.80;;;;;16.10;101559.00;;;;5088863;28;20214;-75
2020/12/17 11:23:34;;;;;;;6.28;2.03;;;;;16.10;101563.00;;;;5087173;28;20213;-75
2020/12/17 11:26:02;;;;;;;5.00;2.42;;;;;16.10;101576.00;;;;5087150;28;20206;-76
2020/12/17 11:28:30;;;;;;;5.13;2.35;;;;;16.10;101573.00;;;;5087732;28;20199;-77
2020/12/17 11:30:57;;;;;;;3.38;2.58;;;;;16.10;101580.00;;;;5087969;28;20191;-76
2020/12/17 11:33:25;;;;;;;2.92;2.50;;;;;16.20;101580.00;;;;5087359;28;20233;-76
2020/12/17 11:35:52;;;;;;;3.03;1.83;;;;;16.20;101573.00;;;;5086202;28;20215;-75
2020/12/17 11:38:19;;;;;;;2.55;2.08;;;;;16.20;101575.00;;;;5087790;28;20206;-74
2020/12/17 11:40:46;;;;;;;5.05;2.20;;;;;16.20;101574.00;;;;5091942;28;20329;-75
2020/12/17 11:43:13;;;;;;;3.20;2.45;;;;;16.20;101581.00;;;;5087266;28;20191;-76
2020/12/17 11:45:40;;;;;;;3.60;2.20;;;;;16.20;101573.00;;;;5091705;28;20202;-76
2020/12/17 11:48:06;;;;;;;5.38;2.25;;;;;16.20;101572.00;;;;5087816;28;20209;-76
2020/12/17 11:50:33;;;;;;;6.55;2.83;;;;;16.30;101578.00;;;;5095518;28;20993;-76
2020/12/17 11:53:00;;;;;;;2.72;2.20;;;;;16.30;101576.00;;;;5092483;28;20602;-76
2020/12/17 11:55:27;;;;;;;2.17;1.83;;;;;16.30;101582.00;;;;5091246;28;20194;-76
2020/12/17 11:57:54;;;;;;;4.20;2.45;;;;;16.30;101574.00;;;;5084903;28;20190;-76
2020/12/17 12:00:21;;;;;;;4.07;2.30;;;;;16.30;101568.00;;;;5101196;28;20217;-76
2020/12/17 12:02:50;;;;;;;5.90;2.28;;;;;16.20;101573.00;;;;5088687;28;20550;-75
2020/12/17 12:05:17;;;;;;;7.13;2.80;;;;;16.20;101581.00;;;;5087003;28;20201;-76
2020/12/17 12:07:44;;;;;;;2.38;1.73;;;;;16.30;101575.00;;;;5087949;28;20202;-76
2020/12/17 12:10:11;;;;;;;3.13;2.25;;;;;16.30;101581.00;;;;5088202;28;20213;-79
2020/12/17 12:12:37;;;;;;;4.75;2.10;;;;;16.30;101579.00;;;;5098013;28;20221;-78
2020/12/17 12:15:05;;;;;;;5.53;2.00;;;;;16.30;101578.00;;;;5072904;28;20198;-77
2020/12/17 12:17:32;;;;;;;2.85;1.80;;;;;16.30;101583.00;;;;5086435;28;20212;-77
2020/12/17 12:19:59;;;;;;;3.85;2.22;;;;;16.40;101582.00;;;;5085017;28;20197;-76